Terminal Aerodrome Forecast
Issued by NWS

Home | Current Version | Previous Version | Text Only | Print | Product List | Glossary Off
Versions: 1 2 3 4 5 6 7 8 9 10 11 12 13 14 15 16 17 18 19

000
FTUS43 KBIS 281700
TAFJMS
TAF
KJMS 281727Z 2818/2918 02011G17KT P6SM SCT009 BKN011 OVC025
      TEMPO 2819/2822 SCT015 BKN035 OVC050
     FM282200 02015G20KT P6SM VCSH BKN015 OVC025
     FM290200 03012KT 5SM BR VCSH BKN006 OVC014
     FM290700 04009KT 3SM BR VCSH SCT002 OVC006=

USA.gov is the U.S. government's official web portal to all federal, state and local government web resources and services.